Time;durP1;ratioP1;P1;durP2;ratioP2;P2;SDS_P1;SDS_P2;PMS_P1;PMS_P2;Temp;Humidity;BMP_temperature;BMP_pressure;BME280_temperature;BME280_humidity;BME280_pressure;Samples;Min_cycle;Max_cycle;Signal;HPM_P1;HPM_P2
2021/06/22 00:00:27;;;;;;;15.43;7.50;;;27.70;56.70;;;;;;6244114;27;80566;-66
2021/06/22 00:03:28;;;;;;;12.48;7.60;;;27.70;56.70;;;;;;6233700;27;82123;-66
2021/06/22 00:06:29;;;;;;;11.38;7.70;;;27.60;55.80;;;;;;6240355;27;83129;-66
2021/06/22 00:09:29;;;;;;;13.48;8.20;;;27.60;55.80;;;;;;6234040;27;81517;-66
2021/06/22 00:12:30;;;;;;;17.92;7.68;;;27.60;56.20;;;;;;6233607;27;80106;-66
2021/06/22 00:15:31;;;;;;;12.82;7.07;;;27.60;56.00;;;;;;6233133;27;81379;-66
2021/06/22 00:18:31;;;;;;;11.88;7.30;;;27.60;56.10;;;;;;6234453;27;83467;-66
2021/06/22 00:21:32;;;;;;;14.48;7.07;;;27.60;55.50;;;;;;6238474;27;80883;-66
2021/06/22 00:24:32;;;;;;;11.35;7.70;;;27.60;55.20;;;;;;6239043;27;81110;-66
2021/06/22 00:27:33;;;;;;;12.27;7.32;;;27.50;55.00;;;;;;6230920;27;82126;-66
2021/06/22 00:30:33;;;;;;;13.95;7.60;;;27.60;55.40;;;;;;6239705;27;80925;-66
2021/06/22 00:37:18;;;;;;;11.30;7.78;;;27.60;55.70;;;;;;6237175;27;81531;-66
2021/06/22 00:40:19;;;;;;;10.25;6.68;;;27.60;55.50;;;;;;6231473;27;80734;-66
2021/06/22 00:43:19;;;;;;;9.13;7.00;;;27.50;55.40;;;;;;6232933;28;80669;-66
2021/06/22 00:46:20;;;;;;;13.25;7.07;;;27.60;55.30;;;;;;6229839;28;83308;-66
2021/06/22 00:49:21;;;;;;;8.20;6.38;;;27.60;55.40;;;;;;6215231;28;81673;-66
2021/06/22 00:52:21;;;;;;;13.77;6.53;;;27.60;55.50;;;;;;6221947;27;83591;-65
2021/06/22 00:55:28;;;;;;;10.45;7.25;;;27.70;55.40;;;;;;6240867;27;83164;-66
2021/06/22 00:58:29;;;;;;;11.57;7.15;;;27.60;55.40;;;;;;6237454;28;81381;-67
2021/06/22 01:01:30;;;;;;;17.50;7.70;;;27.70;55.50;;;;;;6235540;28;81198;-67
2021/06/22 01:08:16;;;;;;;14.90;7.47;;;27.60;55.70;;;;;;6233882;27;81161;-66
2021/06/22 01:11:18;;;;;;;10.02;7.03;;;27.50;56.00;;;;;;6237434;27;82833;-66
2021/06/22 01:14:18;;;;;;;10.27;7.13;;;27.50;55.90;;;;;;6240444;27;83575;-65
2021/06/22 01:17:19;;;;;;;10.07;6.60;;;27.50;55.90;;;;;;6240752;27;83340;-65
2021/06/22 01:20:22;;;;;;;11.35;6.43;;;27.60;55.80;;;;;;6232226;27;82943;-65
2021/06/22 01:23:23;;;;;;;9.57;7.03;;;27.60;55.60;;;;;;6240784;27;83102;-66
2021/06/22 01:26:23;;;;;;;14.45;7.68;;;27.60;55.30;;;;;;6235211;27;80498;-66
2021/06/22 01:29:24;;;;;;;9.70;6.63;;;27.60;55.50;;;;;;6235074;27;81402;-66
2021/06/22 01:32:26;;;;;;;9.32;6.32;;;27.60;55.40;;;;;;6233673;27;80789;-66
2021/06/22 01:35:27;;;;;;;10.52;7.28;;;27.60;55.40;;;;;;6228646;27;80409;-66
2021/06/22 01:38:28;;;;;;;9.63;6.50;;;27.60;55.40;;;;;;6236995;27;80269;-66
2021/06/22 01:41:31;;;;;;;9.52;6.75;;;27.60;55.40;;;;;;6242187;28;81800;-66
2021/06/22 01:44:32;;;;;;;9.02;6.57;;;27.60;55.50;;;;;;6233093;27;83001;-66
2021/06/22 01:47:32;;;;;;;11.95;7.05;;;27.60;55.70;;;;;;6240328;27;81878;-66
2021/06/22 01:50:36;;;;;;;11.60;6.90;;;27.60;55.50;;;;;;6241498;27;82516;-66
2021/06/22 01:53:36;;;;;;;11.88;6.97;;;27.50;55.30;;;;;;6239085;27;80374;-66
2021/06/22 01:56:51;;;;;;;13.18;7.18;;;27.50;55.50;;;;;;6243710;27;80764;-66
2021/06/22 01:59:56;;;;;;;10.88;7.68;;;27.50;55.50;;;;;;6231827;27;81510;-67
2021/06/22 02:03:09;;;;;;;9.68;6.93;;;27.50;55.40;;;;;;6238725;28;81987;-66
2021/06/22 02:06:10;;;;;;;9.88;6.65;;;27.40;55.40;;;;;;6224760;27;83348;-66
2021/06/22 02:09:16;;;;;;;13.18;7.45;;;27.40;55.50;;;;;;6234748;28;82225;-66
2021/06/22 02:12:16;;;;;;;14.40;7.32;;;27.40;55.30;;;;;;6237939;27;82783;-67
2021/06/22 02:15:17;;;;;;;9.43;7.43;;;27.50;55.50;;;;;;6233545;27;82090;-67
2021/06/22 02:18:18;;;;;;;14.13;7.75;;;27.50;55.40;;;;;;6235489;27;80440;-67
2021/06/22 02:21:19;;;;;;;13.20;6.93;;;27.40;55.50;;;;;;6234715;28;83164;-66
2021/06/22 02:24:19;;;;;;;13.77;7.43;;;27.40;55.40;;;;;;6237774;27;83120;-66
2021/06/22 02:27:20;;;;;;;11.55;7.25;;;27.40;55.30;;;;;;6232832;27;81331;-65
2021/06/22 02:30:21;;;;;;;11.15;7.53;;;27.40;55.50;;;;;;6231415;27;82783;-65
2021/06/22 02:33:22;;;;;;;11.32;6.82;;;27.40;55.40;;;;;;6232542;27;82925;-65
2021/06/22 02:36:27;;;;;;;9.57;6.68;;;27.40;55.70;;;;;;6236143;27;80319;-67
2021/06/22 02:39:28;;;;;;;10.82;6.32;;;27.40;55.50;;;;;;6231876;27;83241;-67
2021/06/22 02:42:29;;;;;;;11.48;7.00;;;27.50;55.80;;;;;;6234483;27;83539;-67
2021/06/22 02:45:33;;;;;;;9.35;6.35;;;27.40;55.40;;;;;;6232987;27;83181;-66
2021/06/22 02:48:36;;;;;;;12.63;6.80;;;27.50;55.60;;;;;;6231386;27;81646;-66
2021/06/22 02:51:38;;;;;;;16.10;7.13;;;27.50;56.10;;;;;;6233014;28;82053;-66
2021/06/22 02:54:39;;;;;;;13.98;6.85;;;27.50;55.50;;;;;;6240051;27;80938;-66
2021/06/22 02:57:40;;;;;;;9.13;6.13;;;27.50;55.60;;;;;;6240596;27;83163;-66
2021/06/22 03:00:41;;;;;;;8.95;6.78;;;27.50;55.90;;;;;;6232459;27;80925;-66
2021/06/22 03:03:44;;;;;;;12.63;6.47;;;27.60;55.70;;;;;;6233274;27;82366;-66
2021/06/22 03:06:47;;;;;;;12.55;6.72;;;27.60;55.80;;;;;;6233722;28;80476;-66
2021/06/22 03:09:59;;;;;;;12.98;7.03;;;27.50;55.80;;;;;;6235421;27;81818;-65
2021/06/22 03:13:01;;;;;;;12.68;6.85;;;27.50;55.60;;;;;;6231070;27;83269;-66
2021/06/22 03:16:04;;;;;;;15.85;7.07;;;27.50;55.80;;;;;;6233868;27;83182;-69
2021/06/22 03:19:04;;;;;;;19.25;7.53;;;27.40;55.60;;;;;;6212329;28;83137;-66
2021/06/22 03:22:14;;;;;;;21.67;6.75;;;27.40;55.60;;;;;;6219055;28;81711;-69
2021/06/22 03:25:18;;;;;;;14.35;7.60;;;27.40;55.50;;;;;;6232039;28;80674;-68
2021/06/22 03:28:27;;;;;;;11.82;7.60;;;27.40;55.70;;;;;;6220749;27;80411;-66
2021/06/22 03:31:54;;;;;;;13.85;7.88;;;27.30;55.90;;;;;;6231235;27;84821;-67
2021/06/22 03:34:54;;;;;;;11.57;7.45;;;27.40;55.80;;;;;;6232480;27;80944;-67
2021/06/22 03:37:55;;;;;;;12.48;8.02;;;27.40;55.90;;;;;;6240581;27;81416;-67
2021/06/22 03:40:56;;;;;;;13.50;7.53;;;27.40;56.00;;;;;;6233157;27;80138;-67
2021/06/22 03:43:58;;;;;;;13.38;7.88;;;27.40;56.10;;;;;;6230001;27;81554;-67
2021/06/22 03:46:59;;;;;;;8.85;6.45;;;27.40;56.30;;;;;;6231156;27;81465;-66
2021/06/22 03:50:00;;;;;;;12.20;6.78;;;27.40;56.40;;;;;;6232685;27;81626;-66
2021/06/22 03:53:03;;;;;;;12.07;7.00;;;27.40;56.50;;;;;;6239063;28;81848;-66
2021/06/22 03:56:04;;;;;;;12.82;7.20;;;27.50;56.60;;;;;;6238961;27;82533;-66
2021/06/22 03:59:34;;;;;;;13.98;7.32;;;27.40;56.60;;;;;;6225452;28;80145;-66
2021/06/22 04:02:35;;;;;;;11.50;7.10;;;27.50;56.80;;;;;;6241657;27;81484;-66
2021/06/22 04:05:36;;;;;;;15.70;6.43;;;27.50;56.90;;;;;;6230453;27;83289;-66
2021/06/22 04:08:57;;;;;;;11.77;6.78;;;27.50;56.90;;;;;;6231688;27;81232;-66
2021/06/22 04:11:58;;;;;;;13.10;6.97;;;27.50;57.00;;;;;;6229524;27;84693;-66
2021/06/22 04:14:59;;;;;;;13.70;7.68;;;27.50;56.90;;;;;;6243416;27;82190;-67
2021/06/22 04:18:01;;;;;;;16.50;7.72;;;27.50;56.90;;;;;;6230820;27;81459;-67
2021/06/22 04:21:02;;;;;;;11.43;7.78;;;27.50;57.10;;;;;;6233346;27;83430;-67
2021/06/22 04:24:11;;;;;;;16.70;8.15;;;27.60;56.80;;;;;;6235270;28;81523;-67
2021/06/22 04:27:11;;;;;;;16.77;7.38;;;27.60;56.90;;;;;;6238073;27;81680;-66
2021/06/22 04:30:12;;;;;;;12.68;7.80;;;27.60;57.20;;;;;;6237996;28;80494;-65
2021/06/22 04:33:12;;;;;;;23.33;7.45;;;27.60;56.70;;;;;;6238040;27;80534;-65
2021/06/22 04:36:13;;;;;;;12.10;7.72;;;27.60;56.90;;;;;;6236212;27;81070;-66
2021/06/22 04:39:14;;;;;;;24.25;8.38;;;27.70;57.20;;;;;;6238239;27;80906;-66
2021/06/22 04:42:14;;;;;;;19.00;7.22;;;27.60;57.20;;;;;;6240838;27;80719;-66
2021/06/22 04:45:15;;;;;;;10.85;7.65;;;27.70;57.70;;;;;;6237176;27;80585;-67
2021/06/22 04:48:15;;;;;;;16.33;7.85;;;27.70;57.00;;;;;;6235487;27;80574;-67
2021/06/22 04:51:16;;;;;;;14.38;7.38;;;27.70;56.80;;;;;;6235525;27;80443;-67
2021/06/22 04:54:17;;;;;;;16.00;9.15;;;27.70;57.20;;;;;;6236239;28;82649;-67
2021/06/22 04:57:20;;;;;;;10.98;7.90;;;27.70;57.10;;;;;;6236400;27;80380;-68
2021/06/22 05:00:21;;;;;;;12.40;7.38;;;27.80;57.40;;;;;;6235797;27;80705;-67
2021/06/22 05:03:21;;;;;;;13.52;7.90;;;27.80;57.30;;;;;;6240783;27;80395;-68
2021/06/22 05:06:22;;;;;;;12.30;7.47;;;27.80;57.60;;;;;;6231522;27;83243;-68
2021/06/22 05:09:22;;;;;;;14.25;7.72;;;27.90;57.60;;;;;;6240019;27;80868;-68
2021/06/22 05:12:23;;;;;;;12.68;7.70;;;27.80;57.50;;;;;;6237027;27;80274;-67
2021/06/22 05:15:26;;;;;;;15.63;7.72;;;27.90;57.80;;;;;;6236369;27;80304;-67
2021/06/22 05:18:26;;;;;;;16.42;8.18;;;27.80;57.50;;;;;;6235733;27;81712;-67
2021/06/22 05:21:27;;;;;;;11.90;7.45;;;27.80;57.90;;;;;;6235696;27;80862;-67
2021/06/22 05:24:27;;;;;;;10.60;7.78;;;27.80;58.10;;;;;;6236288;27;80562;-68
2021/06/22 05:27:28;;;;;;;12.55;8.25;;;27.80;58.10;;;;;;6234424;27;80665;-69
2021/06/22 05:30:28;;;;;;;14.43;7.65;;;27.80;58.20;;;;;;6233509;27;81510;-70
2021/06/22 05:33:29;;;;;;;13.82;8.25;;;27.80;58.10;;;;;;6234212;27;80356;-70
2021/06/22 05:36:29;;;;;;;14.98;8.18;;;27.80;58.30;;;;;;6235903;27;80688;-68
2021/06/22 05:39:30;;;;;;;16.27;8.18;;;27.80;58.30;;;;;;6235422;27;80339;-68
2021/06/22 05:42:31;;;;;;;17.73;8.50;;;27.90;58.30;;;;;;6234112;27;80581;-68
2021/06/22 05:45:31;;;;;;;19.85;8.55;;;27.80;58.70;;;;;;6227663;27;80348;-68
2021/06/22 05:48:32;;;;;;;11.75;8.90;;;27.90;57.90;;;;;;6231671;27;86828;-68
2021/06/22 05:51:32;;;;;;;158.23;58.65;;;27.80;58.30;;;;;;6235534;27;80762;-69
2021/06/22 05:54:33;;;;;;;300.30;111.05;;;27.80;58.10;;;;;;6244313;27;82835;-66
2021/06/22 05:57:33;;;;;;;215.23;82.03;;;27.90;58.10;;;;;;6229437;28;85877;-68
2021/06/22 06:00:34;;;;;;;218.02;82.15;;;27.90;58.30;;;;;;6230395;27;85324;-66
2021/06/22 06:03:34;;;;;;;206.70;78.15;;;27.90;57.90;;;;;;6232445;27;83299;-66
2021/06/22 06:06:35;;;;;;;191.45;74.88;;;27.80;58.10;;;;;;6233190;28;83377;-66
2021/06/22 06:09:37;;;;;;;168.95;63.75;;;27.90;58.10;;;;;;6233155;27;86549;-67
2021/06/22 06:12:37;;;;;;;148.98;60.05;;;27.80;57.70;;;;;;6234828;28;83435;-66
2021/06/22 06:15:38;;;;;;;139.38;56.58;;;27.80;58.00;;;;;;6233166;27;83569;-67
2021/06/22 06:18:39;;;;;;;121.35;50.28;;;27.90;58.60;;;;;;6233288;27;83526;-65
2021/06/22 06:21:39;;;;;;;120.13;47.67;;;27.90;58.00;;;;;;6213726;28;84339;-68
2021/06/22 06:24:40;;;;;;;114.53;46.70;;;27.90;58.30;;;;;;6231247;27;82878;-66
2021/06/22 06:27:57;;;;;;;100.28;39.72;;;27.90;58.40;;;;;;6232013;27;83675;-66
2021/06/22 06:30:58;;;;;;;97.93;39.55;;;27.90;58.70;;;;;;6228372;28;83289;-68
2021/06/22 06:33:58;;;;;;;72.40;30.52;;;27.90;58.60;;;;;;6226005;28;83094;-68
2021/06/22 06:36:59;;;;;;;221.10;83.53;;;28.00;58.40;;;;;;6234090;27;83085;-69
2021/06/22 06:39:59;;;;;;;337.25;119.05;;;27.90;58.30;;;;;;6230365;28;84133;-69
2021/06/22 06:43:00;;;;;;;297.63;105.47;;;27.90;59.00;;;;;;6221516;27;85581;-69
2021/06/22 06:46:00;;;;;;;261.20;97.70;;;27.90;58.90;;;;;;6232614;27;86638;-69
2021/06/22 06:49:01;;;;;;;226.70;85.78;;;28.00;58.50;;;;;;6229390;27;84442;-68
2021/06/22 06:52:01;;;;;;;204.52;75.90;;;28.00;58.60;;;;;;6208267;28;83183;-69
2021/06/22 06:55:02;;;;;;;154.25;61.72;;;28.00;58.80;;;;;;6228900;27;84278;-68
2021/06/22 06:58:02;;;;;;;156.73;58.25;;;27.90;58.70;;;;;;6225805;28;83221;-68
2021/06/22 07:01:03;;;;;;;140.07;53.78;;;27.90;59.30;;;;;;6228302;28;83431;-68
2021/06/22 07:04:03;;;;;;;125.28;50.28;;;27.90;59.20;;;;;;6229246;27;83484;-67
2021/06/22 07:07:04;;;;;;;91.32;35.30;;;27.90;59.40;;;;;;6229326;27;83202;-67
2021/06/22 07:10:05;;;;;;;90.65;37.05;;;28.00;59.40;;;;;;6230631;27;83060;-68
2021/06/22 07:13:12;;;;;;;73.10;33.25;;;28.00;59.20;;;;;;6229334;28;86080;-69
2021/06/22 07:16:13;;;;;;;57.33;26.15;;;28.00;59.30;;;;;;6235388;27;83215;-68
2021/06/22 07:19:13;;;;;;;47.70;23.48;;;28.10;59.70;;;;;;6237300;28;83157;-66
2021/06/22 07:22:14;;;;;;;49.03;22.63;;;28.10;59.60;;;;;;6235027;27;84361;-66
2021/06/22 07:25:14;;;;;;;58.55;23.63;;;28.10;59.70;;;;;;6229981;27;83218;-66
2021/06/22 07:28:15;;;;;;;37.45;18.38;;;28.10;59.70;;;;;;6228382;27;82784;-66
2021/06/22 07:31:16;;;;;;;36.55;18.52;;;28.10;59.50;;;;;;6231184;28;83086;-66
2021/06/22 07:34:16;;;;;;;37.70;18.38;;;28.20;59.70;;;;;;6242206;27;83773;-67
2021/06/22 07:37:17;;;;;;;27.02;13.68;;;28.20;59.60;;;;;;6231252;28;83582;-65
2021/06/22 07:40:17;;;;;;;28.17;12.50;;;28.20;58.70;;;;;;6230017;27;83152;-66
2021/06/22 07:43:18;;;;;;;25.33;13.25;;;28.20;58.60;;;;;;6231310;27;83431;-66
2021/06/22 07:46:18;;;;;;;22.75;12.38;;;28.20;58.90;;;;;;6229795;27;83179;-66
2021/06/22 07:49:19;;;;;;;23.63;12.00;;;28.20;58.80;;;;;;6229198;27;87314;-67
2021/06/22 07:52:19;;;;;;;23.17;11.88;;;28.20;58.60;;;;;;6228457;28;84099;-66
2021/06/22 07:55:20;;;;;;;20.55;10.43;;;28.30;58.30;;;;;;6230388;27;82963;-66
2021/06/22 07:58:20;;;;;;;15.93;10.15;;;28.20;57.60;;;;;;6231176;27;83375;-66
2021/06/22 08:01:21;;;;;;;17.42;9.95;;;28.30;57.20;;;;;;6241368;27;82867;-66
2021/06/22 08:04:22;;;;;;;15.35;10.52;;;28.30;57.10;;;;;;6238888;27;83335;-65
2021/06/22 08:07:22;;;;;;;13.48;9.27;;;28.30;56.80;;;;;;6232886;27;82743;-66
2021/06/22 08:10:23;;;;;;;16.30;8.88;;;28.30;56.30;;;;;;6238151;28;82697;-66
2021/06/22 08:13:24;;;;;;;13.70;8.05;;;28.40;56.50;;;;;;6241987;27;80735;-65
2021/06/22 08:16:25;;;;;;;13.10;9.15;;;28.40;56.60;;;;;;6236754;28;81025;-66
2021/06/22 08:19:25;;;;;;;13.27;8.52;;;28.40;56.50;;;;;;6235042;27;80434;-65
2021/06/22 08:22:26;;;;;;;11.60;8.60;;;28.50;56.30;;;;;;6239373;27;80635;-65
2021/06/22 08:25:27;;;;;;;14.75;8.20;;;28.50;56.30;;;;;;6244758;27;80484;-67
2021/06/22 08:28:27;;;;;;;13.18;8.52;;;28.50;56.30;;;;;;6237824;27;80529;-67
2021/06/22 08:31:28;;;;;;;11.18;8.60;;;28.50;56.20;;;;;;6238569;27;80277;-67
2021/06/22 08:34:29;;;;;;;11.57;8.50;;;28.50;56.30;;;;;;6235648;27;80820;-65
2021/06/22 08:37:29;;;;;;;11.43;7.90;;;28.50;56.70;;;;;;6229060;28;80360;-66
2021/06/22 08:40:30;;;;;;;16.60;8.18;;;28.50;57.10;;;;;;6229128;28;81013;-67
2021/06/22 08:43:30;;;;;;;10.23;7.75;;;28.50;55.60;;;;;;6225264;28;81038;-67
2021/06/22 08:46:31;;;;;;;11.50;7.82;;;28.60;55.10;;;;;;6225351;28;80558;-66
2021/06/22 08:49:31;;;;;;;18.27;9.02;;;28.60;55.60;;;;;;6229015;28;80827;-65
2021/06/22 08:52:34;;;;;;;14.15;8.45;;;28.70;56.00;;;;;;6233770;27;85103;-68
2021/06/22 08:55:35;;;;;;;9.98;8.20;;;28.70;56.30;;;;;;6233607;27;80876;-65
2021/06/22 08:58:36;;;;;;;13.23;8.85;;;28.60;56.20;;;;;;6230542;27;80604;-67
2021/06/22 09:01:36;;;;;;;16.90;8.57;;;28.60;56.20;;;;;;6235987;27;81371;-67
2021/06/22 09:04:37;;;;;;;13.00;9.25;;;28.60;56.50;;;;;;6232615;27;86517;-66
2021/06/22 09:07:37;;;;;;;12.85;9.38;;;28.60;57.50;;;;;;6231611;27;80593;-67
2021/06/22 09:10:38;;;;;;;16.95;9.55;;;28.60;57.40;;;;;;6233962;27;80445;-65
2021/06/22 09:13:39;;;;;;;12.88;8.82;;;28.60;57.40;;;;;;6233999;27;80950;-67
2021/06/22 09:16:41;;;;;;;21.90;9.27;;;28.60;57.40;;;;;;6233844;28;80432;-67
2021/06/22 09:19:41;;;;;;;17.58;11.23;;;28.60;58.00;;;;;;6236796;27;80803;-67
2021/06/22 09:22:42;;;;;;;17.00;12.70;;;28.60;58.10;;;;;;6231471;28;89744;-66
2021/06/22 09:25:42;;;;;;;21.67;13.07;;;28.60;58.10;;;;;;6242311;27;85673;-67
2021/06/22 09:28:43;;;;;;;21.42;13.20;;;28.60;58.40;;;;;;6233366;28;83073;-67
2021/06/22 09:31:43;;;;;;;43.25;19.60;;;28.60;58.20;;;;;;6233333;27;83270;-67
2021/06/22 09:34:44;;;;;;;125.28;57.03;;;28.60;58.90;;;;;;6235381;27;84310;-67
2021/06/22 09:37:44;;;;;;;108.68;50.65;;;28.60;59.50;;;;;;6232968;27;82911;-66
2021/06/22 09:40:45;;;;;;;92.97;44.08;;;28.50;59.50;;;;;;6233113;27;82885;-66
2021/06/22 09:43:45;;;;;;;90.72;40.47;;;28.60;59.00;;;;;;6238973;27;83019;-67
2021/06/22 09:46:46;;;;;;;75.70;36.47;;;28.60;58.90;;;;;;6230131;27;84176;-66
2021/06/22 09:49:47;;;;;;;61.67;32.88;;;28.60;59.00;;;;;;6229297;27;83032;-66
2021/06/22 09:52:47;;;;;;;57.58;27.13;;;28.60;58.60;;;;;;6237484;27;83223;-66
2021/06/22 09:55:48;;;;;;;42.88;21.67;;;28.60;58.10;;;;;;6234285;27;82895;-65
2021/06/22 09:58:48;;;;;;;33.25;18.23;;;28.60;57.50;;;;;;6232645;27;86132;-67
2021/06/22 10:01:49;;;;;;;25.25;15.35;;;28.60;57.40;;;;;;6232557;28;82820;-66
2021/06/22 10:04:49;;;;;;;22.67;13.13;;;28.60;57.30;;;;;;6231688;27;83643;-67
2021/06/22 10:07:50;;;;;;;17.63;12.05;;;28.60;57.60;;;;;;6234387;27;83001;-67
2021/06/22 10:10:50;;;;;;;16.83;11.65;;;28.60;57.20;;;;;;6230427;27;83570;-67
2021/06/22 10:13:51;;;;;;;19.90;11.70;;;28.60;56.80;;;;;;6232747;28;83023;-67
2021/06/22 10:16:51;;;;;;;18.55;9.90;;;28.60;56.90;;;;;;6230877;27;83538;-66
2021/06/22 10:19:52;;;;;;;16.05;10.40;;;28.60;57.00;;;;;;6230574;27;81917;-66
2021/06/22 10:22:53;;;;;;;15.88;9.70;;;28.60;56.70;;;;;;6231541;27;82981;-67
2021/06/22 10:25:54;;;;;;;17.77;9.00;;;28.60;56.90;;;;;;6235853;28;81779;-67
2021/06/22 10:28:55;;;;;;;12.15;8.60;;;28.70;57.00;;;;;;6229728;27;81036;-67
2021/06/22 10:31:56;;;;;;;16.08;8.45;;;28.70;57.10;;;;;;6221308;28;80611;-67
2021/06/22 10:34:56;;;;;;;11.00;8.55;;;28.70;57.10;;;;;;6226904;27;80596;-67
2021/06/22 10:37:57;;;;;;;12.18;8.23;;;28.70;57.10;;;;;;6233645;27;81472;-66
2021/06/22 10:40:58;;;;;;;16.05;8.07;;;28.70;57.40;;;;;;6229498;28;81325;-66
2021/06/22 10:43:58;;;;;;;20.20;8.20;;;28.80;57.60;;;;;;6229193;27;81535;-67
2021/06/22 10:46:59;;;;;;;14.10;8.50;;;28.70;57.50;;;;;;6227920;27;80692;-67
2021/06/22 10:49:59;;;;;;;17.48;8.32;;;28.80;56.90;;;;;;6229218;27;82328;-67
2021/06/22 10:53:00;;;;;;;13.63;7.45;;;28.80;56.90;;;;;;6232591;28;83469;-67
2021/06/22 10:56:01;;;;;;;15.70;7.65;;;28.80;56.40;;;;;;6234476;27;81254;-67
2021/06/22 10:59:01;;;;;;;13.23;7.22;;;28.90;56.30;;;;;;6237414;27;81747;-68
2021/06/22 11:02:02;;;;;;;14.93;7.47;;;28.90;56.30;;;;;;6228173;27;81898;-67
2021/06/22 11:05:02;;;;;;;10.90;7.45;;;28.90;55.60;;;;;;6234575;27;80815;-68
2021/06/22 11:08:03;;;;;;;10.40;7.13;;;28.90;55.70;;;;;;6239452;27;81008;-67
2021/06/22 11:11:03;;;;;;;11.23;8.80;;;29.00;55.70;;;;;;6234065;27;80703;-67
2021/06/22 11:14:04;;;;;;;12.15;8.57;;;29.00;55.80;;;;;;6233954;27;81681;-65
2021/06/22 11:17:04;;;;;;;13.55;7.88;;;29.00;55.90;;;;;;6231027;27;80109;-66
2021/06/22 11:20:05;;;;;;;10.93;8.30;;;29.00;55.80;;;;;;6231060;27;81157;-65
2021/06/22 11:23:05;;;;;;;13.40;8.23;;;29.00;55.70;;;;;;6239199;27;80656;-66
2021/06/22 11:26:06;;;;;;;9.68;7.70;;;29.00;55.10;;;;;;6241242;27;80487;-67
2021/06/22 11:29:07;;;;;;;10.45;7.65;;;29.00;54.80;;;;;;6231039;28;80441;-67
2021/06/22 11:32:07;;;;;;;11.38;8.15;;;29.00;54.50;;;;;;6226373;27;81251;-66
2021/06/22 11:35:08;;;;;;;10.00;7.53;;;29.00;55.20;;;;;;6231790;27;81079;-64
2021/06/22 11:38:09;;;;;;;9.25;7.20;;;29.00;55.40;;;;;;6234796;27;80497;-66
2021/06/22 11:41:10;;;;;;;17.05;9.80;;;29.00;55.50;;;;;;6232286;27;80628;-66
2021/06/22 11:44:10;;;;;;;16.20;8.10;;;29.00;55.50;;;;;;6242674;27;80786;-66
2021/06/22 11:47:13;;;;;;;13.63;7.90;;;28.90;56.00;;;;;;6233641;27;81445;-66
2021/06/22 11:50:14;;;;;;;12.50;7.40;;;28.90;56.00;;;;;;6229697;28;80894;-67
2021/06/22 11:53:15;;;;;;;10.95;7.18;;;28.90;56.10;;;;;;6237340;27;80872;-67
2021/06/22 11:56:16;;;;;;;13.25;8.15;;;28.90;56.40;;;;;;6232883;27;80871;-67
2021/06/22 11:59:16;;;;;;;16.50;10.30;;;28.90;56.20;;;;;;6232962;27;80455;-65
2021/06/22 12:02:17;;;;;;;11.40;8.32;;;28.80;56.30;;;;;;6232437;27;82932;-68
2021/06/22 12:05:18;;;;;;;18.23;7.53;;;28.80;56.20;;;;;;6228684;27;82659;-68
2021/06/22 12:08:18;;;;;;;16.58;7.60;;;28.80;55.70;;;;;;6231065;27;81043;-68
2021/06/22 12:11:19;;;;;;;16.05;8.00;;;28.80;55.70;;;;;;6231879;27;81255;-67
2021/06/22 12:14:19;;;;;;;12.10;7.70;;;28.80;55.40;;;;;;6229886;27;80617;-66
2021/06/22 12:17:20;;;;;;;15.07;9.00;;;28.80;55.30;;;;;;6231319;27;81396;-67
2021/06/22 12:20:20;;;;;;;13.05;8.35;;;28.80;55.20;;;;;;6229615;27;83687;-67
2021/06/22 12:23:21;;;;;;;17.45;8.75;;;28.90;55.30;;;;;;6226070;28;80290;-67
2021/06/22 12:26:21;;;;;;;13.75;7.80;;;28.80;55.20;;;;;;6231667;27;80828;-67
2021/06/22 12:29:22;;;;;;;12.73;8.57;;;28.80;56.10;;;;;;6228928;27;80493;-67
2021/06/22 12:32:23;;;;;;;14.13;7.82;;;28.90;55.30;;;;;;6247167;27;80961;-68
2021/06/22 12:35:23;;;;;;;17.15;8.35;;;28.90;55.80;;;;;;6231807;27;80619;-70
2021/06/22 12:38:24;;;;;;;12.75;8.45;;;28.90;55.70;;;;;;6232942;28;80435;-67
2021/06/22 12:41:24;;;;;;;15.18;7.85;;;28.90;56.30;;;;;;6225550;28;80560;-68
2021/06/22 12:44:25;;;;;;;10.32;8.10;;;29.00;56.50;;;;;;6239931;27;80913;-69
2021/06/22 12:47:26;;;;;;;20.35;9.23;;;29.00;56.40;;;;;;6235710;27;80553;-68
2021/06/22 12:50:27;;;;;;;10.70;7.78;;;28.90;56.10;;;;;;6241748;27;81238;-67
2021/06/22 12:53:29;;;;;;;15.18;8.68;;;29.00;55.60;;;;;;6234416;27;81664;-68
2021/06/22 12:56:31;;;;;;;15.45;8.00;;;29.00;55.70;;;;;;6231323;27;80508;-67
2021/06/22 12:59:31;;;;;;;12.10;7.88;;;28.90;55.50;;;;;;6245986;27;80899;-65
2021/06/22 13:02:32;;;;;;;16.85;8.85;;;28.90;55.60;;;;;;6237130;28;87481;-67
2021/06/22 13:05:33;;;;;;;12.68;9.45;;;28.90;55.90;;;;;;6237491;27;81208;-67
2021/06/22 13:08:34;;;;;;;14.85;8.60;;;29.00;55.10;;;;;;6235548;27;81722;-67
2021/06/22 13:11:34;;;;;;;13.35;9.52;;;29.10;54.60;;;;;;6234505;27;80517;-66
2021/06/22 13:14:35;;;;;;;14.63;9.23;;;29.10;54.80;;;;;;6235348;27;80358;-64
2021/06/22 13:17:36;;;;;;;11.30;9.35;;;29.10;55.10;;;;;;6233797;27;81511;-64
2021/06/22 13:20:36;;;;;;;16.33;9.73;;;29.10;55.30;;;;;;6233851;27;80493;-64
2021/06/22 13:23:37;;;;;;;12.48;9.02;;;29.10;55.20;;;;;;6239458;27;82913;-65
2021/06/22 13:26:37;;;;;;;11.52;9.18;;;29.10;55.50;;;;;;6239869;27;80538;-65
2021/06/22 13:29:38;;;;;;;12.30;9.77;;;29.10;55.70;;;;;;6236257;27;81537;-66
2021/06/22 13:32:38;;;;;;;15.75;8.80;;;29.10;55.70;;;;;;6243465;27;81020;-66
2021/06/22 13:35:40;;;;;;;13.35;9.07;;;29.10;55.80;;;;;;6234920;27;80438;-67
2021/06/22 13:38:41;;;;;;;9.52;8.50;;;29.00;55.80;;;;;;6234421;27;81018;-66
2021/06/22 13:41:41;;;;;;;14.63;9.00;;;29.00;55.30;;;;;;6229848;27;83773;-66
2021/06/22 13:44:42;;;;;;;11.07;9.07;;;29.00;55.10;;;;;;6231106;27;80517;-66
2021/06/22 13:47:43;;;;;;;15.07;9.30;;;29.00;55.00;;;;;;6238200;27;80558;-67
2021/06/22 13:50:43;;;;;;;14.13;9.02;;;29.10;54.40;;;;;;6232692;27;80843;-67
2021/06/22 13:53:46;;;;;;;14.68;9.88;;;29.10;54.60;;;;;;6234225;27;81626;-68
2021/06/22 13:56:47;;;;;;;12.32;9.98;;;29.10;55.10;;;;;;6233474;28;87569;-67
2021/06/22 13:59:47;;;;;;;11.98;9.93;;;29.00;55.00;;;;;;6238451;27;83843;-67
2021/06/22 14:02:48;;;;;;;11.25;9.55;;;29.00;55.20;;;;;;6235307;28;82900;-66
2021/06/22 14:05:48;;;;;;;12.32;10.07;;;29.00;55.30;;;;;;6233925;27;81240;-67
2021/06/22 14:08:49;;;;;;;15.45;10.18;;;29.00;55.40;;;;;;6229447;27;82764;-67
2021/06/22 14:11:49;;;;;;;15.98;10.05;;;29.00;55.40;;;;;;6234694;27;83673;-67
2021/06/22 14:14:50;;;;;;;17.42;10.73;;;29.00;55.50;;;;;;6234688;27;85471;-67
2021/06/22 14:17:51;;;;;;;15.55;10.27;;;29.00;55.10;;;;;;6229320;27;85349;-67
2021/06/22 14:20:51;;;;;;;13.30;9.60;;;29.00;54.80;;;;;;6231970;28;84408;-66
2021/06/22 14:23:52;;;;;;;14.15;9.68;;;29.10;54.60;;;;;;6231167;28;82928;-66
2021/06/22 14:26:52;;;;;;;14.13;9.95;;;29.10;54.80;;;;;;6234268;27;80850;-67
2021/06/22 14:29:53;;;;;;;14.52;10.02;;;29.10;55.00;;;;;;6236153;27;80170;-67
2021/06/22 14:32:54;;;;;;;16.23;9.73;;;29.10;54.70;;;;;;6233989;27;83659;-66
2021/06/22 14:35:55;;;;;;;13.68;10.07;;;29.10;55.10;;;;;;6232071;27;83065;-65
2021/06/22 14:38:55;;;;;;;13.00;10.20;;;29.10;55.10;;;;;;6229691;27;83215;-66
2021/06/22 14:41:56;;;;;;;17.30;10.00;;;29.10;55.40;;;;;;6229435;27;86158;-67
2021/06/22 14:44:56;;;;;;;16.67;10.23;;;29.10;55.80;;;;;;6230479;27;84507;-67
2021/06/22 14:47:57;;;;;;;16.33;10.30;;;29.00;55.80;;;;;;6226582;28;83376;-66
2021/06/22 14:50:57;;;;;;;12.52;10.10;;;29.10;56.00;;;;;;6230371;28;84704;-67
2021/06/22 14:53:59;;;;;;;15.60;9.73;;;29.10;55.80;;;;;;6226979;27;83333;-67
2021/06/22 14:56:59;;;;;;;14.73;10.60;;;29.10;55.60;;;;;;6233898;27;82875;-67
2021/06/22 15:00:00;;;;;;;19.30;11.02;;;29.10;55.60;;;;;;6230065;27;83225;-67
2021/06/22 15:03:01;;;;;;;24.58;10.93;;;29.00;55.80;;;;;;6224401;27;85983;-66
2021/06/22 15:06:01;;;;;;;18.23;10.55;;;29.00;56.40;;;;;;6225772;28;83060;-67
2021/06/22 15:09:01;;;;;;;21.85;10.35;;;29.00;55.70;;;;;;6229672;27;83541;-65
2021/06/22 15:12:02;;;;;;;12.50;10.27;;;29.10;55.80;;;;;;6227960;27;85389;-66
2021/06/22 15:15:02;;;;;;;18.63;10.52;;;29.10;55.70;;;;;;6228646;28;83809;-65
2021/06/22 15:18:03;;;;;;;14.88;10.55;;;29.00;55.80;;;;;;6227306;27;82668;-66
2021/06/22 15:21:04;;;;;;;14.00;10.90;;;29.00;55.80;;;;;;6230388;27;84954;-65
2021/06/22 15:24:04;;;;;;;19.25;10.57;;;29.00;55.80;;;;;;6228844;27;83322;-66
2021/06/22 15:27:05;;;;;;;16.02;11.40;;;29.00;56.10;;;;;;6227188;27;83747;-65
2021/06/22 15:30:05;;;;;;;13.73;11.70;;;29.00;56.40;;;;;;6221588;27;84285;-66
2021/06/22 15:33:06;;;;;;;16.10;11.13;;;29.00;56.70;;;;;;6233321;27;88692;-66